»·PEaware :: N116S KIFP-KGCN

N116S :: KIFP-KGCN

FLIGHT INFORMATION

Flight Status: Arrived
Operator: Privately registered:
United States
More flights under this callsign
Pilot: Steve R. (16018)
Aircraft: ECLIPSE 500
(EA50)
More flights by this aircraft type
Origin: KIFP Laughlin/Bullhead Intl
United States
Destination: KGCN Grand Canyon Natl Park
United States
More flights between these airports :: More routes between these airports
Route: ZIVSI V105 PRFUM V210 GUCRU
File this flight plan on PilotEdge
Remarks: Sample flight plan
Altitude:
(Current/Filed)
11,500ft
Speed:
(Current/Filed)
300kts
Departed: 22-Jul-18 02:11 PM
Arrived: 22-Jul-18 02:48 PM
Distance/Time
Traveled:
128nm/0:36
Distance/Time
To Go:
Arrived

Flight Plot

Page will automatically refresh every two minutes.

Flight plan parsing failed; only flown route is shown


Map Options




Map Legend


Flown Route
Filed Route
Departure Airport
Arrival Airport
Navaid (VOR, NDB)
Fix

Horizontal Profiles

Position Reports

Time Latitude Longitude Heading Altitude Ground
Speed
22-Jul-18 14:03 35.159758 -114.556367 266 698ft 0kts
22-Jul-18 14:04 35.159758 -114.556367 266 698ft 0kts
22-Jul-18 14:05 35.159758 -114.556367 266 698ft 0kts
22-Jul-18 14:06 35.159758 -114.556367 266 698ft 0kts
22-Jul-18 14:07 35.159758 -114.556367 266 698ft 0kts
22-Jul-18 14:08 35.159758 -114.556367 266 698ft 0kts
22-Jul-18 14:09 35.159796 -114.556541 305 698ft 5kts
22-Jul-18 14:10 35.163700 -114.556877 348 698ft 21kts
22-Jul-18 14:11 35.166197 -114.559264 274 698ft 0kts
22-Jul-18 14:12 35.161420 -114.559848 174 698ft 97kts
22-Jul-18 14:13 35.142433 -114.525631 53 2176ft 228kts
22-Jul-18 14:14 35.199357 -114.496180 24 3851ft 208kts
22-Jul-18 14:15 35.250066 -114.462101 31 5858ft 225kts
22-Jul-18 14:16 35.304118 -114.417353 34 7862ft 243kts
22-Jul-18 14:17 35.359176 -114.367886 35 9869ft 247kts
22-Jul-18 14:18 35.413382 -114.317608 37 11629ft 255kts
22-Jul-18 14:19 35.476121 -114.258662 37 11717ft 308kts
22-Jul-18 14:20 35.547824 -114.190888 37 12063ft 340kts
22-Jul-18 14:21 35.571163 -114.091781 111 12064ft 334kts
22-Jul-18 14:22 35.530151 -113.993736 120 11736ft 311kts
22-Jul-18 14:23 35.525438 -113.896476 73 11737ft 298kts
22-Jul-18 14:24 35.549762 -113.803158 70 11737ft 293kts
22-Jul-18 14:25 35.577094 -113.707401 69 11739ft 306kts
22-Jul-18 14:26 35.602670 -113.619796 69 11738ft 315kts
22-Jul-18 14:27 35.631363 -113.516897 72 11738ft 319kts
22-Jul-18 14:28 35.654847 -113.421877 72 11252ft 265kts
22-Jul-18 14:29 35.675592 -113.337400 73 10250ft 255kts
22-Jul-18 14:30 35.695885 -113.254410 72 9293ft 250kts
22-Jul-18 14:31 35.714563 -113.177724 72 9308ft 221kts
22-Jul-18 14:32 35.731935 -113.106217 72 9368ft 217kts
22-Jul-18 14:33 35.750787 -113.028476 72 9431ft 253kts
22-Jul-18 14:34 35.771594 -112.942355 72 9441ft 269kts
22-Jul-18 14:35 35.789747 -112.867004 73 9445ft 267kts
22-Jul-18 14:36 35.810619 -112.780021 74 9449ft 267kts
22-Jul-18 14:37 35.831531 -112.692373 74 9449ft 268kts
22-Jul-18 14:38 35.852516 -112.604188 74 9449ft 268kts
22-Jul-18 14:39 35.873430 -112.516009 74 9449ft 268kts
22-Jul-18 14:40 35.892936 -112.433470 74 9449ft 268kts
22-Jul-18 14:41 35.913334 -112.345988 74 9001ft 278kts
22-Jul-18 14:42 35.932016 -112.265596 74 8270ft 239kts
22-Jul-18 14:43 35.949394 -112.190607 75 7571ft 204kts
22-Jul-18 14:44 35.976342 -112.153112 30 7453ft 123kts
22-Jul-18 14:45 35.979592 -112.149281 52 7204ft 121kts
22-Jul-18 14:46 35.986475 -112.143245 337 7393ft 102kts
22-Jul-18 14:47 35.968779 -112.131714 189 7359ft 124kts
22-Jul-18 14:48 35.948865 -112.150649 222 6604ft 42kts
22-Jul-18 14:49 35.949786 -112.147859 41 6604ft 28kts
22-Jul-18 14:50 35.954662 -112.142695 41 6604ft 22kts
22-Jul-18 14:51 35.959506 -112.137564 39 6604ft 24kts
22-Jul-18 14:52 35.960144 -112.136582 306 6604ft 0kts
22-Jul-18 14:53 35.960144 -112.136582 306 6604ft 0kts

Navigation Log

Ident Type
Flight plan parsing failed, navigation log unavailable